sensor_id;sensor_type;location;lat;lon;timestamp;P1;durP1;ratioP1;P2;durP2;ratioP2
37485;SDS011;23341;50.296;18.960;2023-03-23T00:02:15;37.72;;;19.08;;
37485;SDS011;23341;50.296;18.960;2023-03-23T00:07:19;28.83;;;17.63;;
37485;SDS011;23341;50.296;18.960;2023-03-23T00:12:25;34.05;;;20.20;;
37485;SDS011;23341;50.296;18.960;2023-03-23T00:17:34;25.52;;;19.23;;
37485;SDS011;23341;50.296;18.960;2023-03-23T00:22:37;26.88;;;17.42;;
37485;SDS011;23341;50.296;18.960;2023-03-23T00:27:43;26.33;;;18.02;;
37485;SDS011;23341;50.296;18.960;2023-03-23T00:32:47;29.55;;;18.17;;
37485;SDS011;23341;50.296;18.960;2023-03-23T00:37:50;25.17;;;15.80;;
37485;SDS011;23341;50.296;18.960;2023-03-23T00:42:55;25.13;;;16.98;;
37485;SDS011;23341;50.296;18.960;2023-03-23T00:47:59;31.45;;;17.35;;
37485;SDS011;23341;50.296;18.960;2023-03-23T00:53:05;30.00;;;16.88;;
37485;SDS011;23341;50.296;18.960;2023-03-23T00:58:10;27.08;;;15.82;;
37485;SDS011;23341;50.296;18.960;2023-03-23T01:03:14;30.75;;;16.83;;
37485;SDS011;23341;50.296;18.960;2023-03-23T01:08:19;29.00;;;17.40;;
37485;SDS011;23341;50.296;18.960;2023-03-23T01:13:24;30.55;;;16.25;;
37485;SDS011;23341;50.296;18.960;2023-03-23T01:18:27;29.48;;;16.92;;
37485;SDS011;23341;50.296;18.960;2023-03-23T01:23:31;29.00;;;16.38;;
37485;SDS011;23341;50.296;18.960;2023-03-23T01:28:36;22.17;;;15.73;;
37485;SDS011;23341;50.296;18.960;2023-03-23T01:33:40;25.92;;;15.95;;
37485;SDS011;23341;50.296;18.960;2023-03-23T01:38:45;27.50;;;15.77;;
37485;SDS011;23341;50.296;18.960;2023-03-23T01:43:56;28.70;;;16.92;;
37485;SDS011;23341;50.296;18.960;2023-03-23T01:49:03;25.05;;;17.67;;
37485;SDS011;23341;50.296;18.960;2023-03-23T01:54:11;29.40;;;18.53;;
37485;SDS011;23341;50.296;18.960;2023-03-23T01:59:23;31.35;;;18.73;;
37485;SDS011;23341;50.296;18.960;2023-03-23T02:04:42;29.55;;;16.40;;
37485;SDS011;23341;50.296;18.960;2023-03-23T02:09:47;37.83;;;19.45;;
37485;SDS011;23341;50.296;18.960;2023-03-23T02:14:54;38.58;;;18.08;;
37485;SDS011;23341;50.296;18.960;2023-03-23T02:20:02;29.05;;;17.80;;
37485;SDS011;23341;50.296;18.960;2023-03-23T02:25:24;26.03;;;15.33;;
37485;SDS011;23341;50.296;18.960;2023-03-23T02:36:03;23.20;;;15.15;;
37485;SDS011;23341;50.296;18.960;2023-03-23T02:41:13;28.00;;;15.98;;
37485;SDS011;23341;50.296;18.960;2023-03-23T02:46:17;36.90;;;19.17;;
37485;SDS011;23341;50.296;18.960;2023-03-23T02:51:26;35.08;;;16.85;;
37485;SDS011;23341;50.296;18.960;2023-03-23T02:56:31;27.42;;;15.43;;
37485;SDS011;23341;50.296;18.960;2023-03-23T03:01:55;25.73;;;15.15;;
37485;SDS011;23341;50.296;18.960;2023-03-23T03:07:30;25.75;;;14.25;;
37485;SDS011;23341;50.296;18.960;2023-03-23T03:12:44;22.55;;;14.00;;
37485;SDS011;23341;50.296;18.960;2023-03-23T03:17:55;22.63;;;13.35;;
37485;SDS011;23341;50.296;18.960;2023-03-23T03:23:04;17.20;;;11.65;;
37485;SDS011;23341;50.296;18.960;2023-03-23T03:28:11;12.63;;;9.87;;
37485;SDS011;23341;50.296;18.960;2023-03-23T03:33:19;18.42;;;11.65;;
37485;SDS011;23341;50.296;18.960;2023-03-23T03:38:39;11.75;;;9.55;;
37485;SDS011;23341;50.296;18.960;2023-03-23T03:43:43;10.68;;;8.93;;
37485;SDS011;23341;50.296;18.960;2023-03-23T03:48:47;10.75;;;9.05;;
37485;SDS011;23341;50.296;18.960;2023-03-23T03:53:56;16.77;;;11.20;;
37485;SDS011;23341;50.296;18.960;2023-03-23T03:59:01;23.00;;;11.55;;
37485;SDS011;23341;50.296;18.960;2023-03-23T04:04:24;23.17;;;13.35;;
37485;SDS011;23341;50.296;18.960;2023-03-23T04:09:28;14.27;;;10.73;;
37485;SDS011;23341;50.296;18.960;2023-03-23T04:14:33;13.07;;;9.95;;
37485;SDS011;23341;50.296;18.960;2023-03-23T04:19:36;16.30;;;10.57;;
37485;SDS011;23341;50.296;18.960;2023-03-23T04:24:42;15.32;;;10.35;;
37485;SDS011;23341;50.296;18.960;2023-03-23T04:29:51;12.43;;;9.57;;
37485;SDS011;23341;50.296;18.960;2023-03-23T04:35:15;20.42;;;10.20;;
37485;SDS011;23341;50.296;18.960;2023-03-23T04:40:26;13.45;;;9.80;;
37485;SDS011;23341;50.296;18.960;2023-03-23T04:45:52;15.55;;;10.52;;
37485;SDS011;23341;50.296;18.960;2023-03-23T04:51:00;20.38;;;10.23;;
37485;SDS011;23341;50.296;18.960;2023-03-23T04:56:08;15.50;;;9.95;;
37485;SDS011;23341;50.296;18.960;2023-03-23T05:01:17;14.38;;;9.57;;
37485;SDS011;23341;50.296;18.960;2023-03-23T05:06:30;22.75;;;9.57;;
37485;SDS011;23341;50.296;18.960;2023-03-23T05:11:40;22.75;;;10.95;;
37485;SDS011;23341;50.296;18.960;2023-03-23T05:16:43;17.67;;;10.45;;
37485;SDS011;23341;50.296;18.960;2023-03-23T05:21:53;16.98;;;9.93;;
37485;SDS011;23341;50.296;18.960;2023-03-23T05:26:58;15.00;;;8.85;;
37485;SDS011;23341;50.296;18.960;2023-03-23T05:32:07;23.08;;;11.27;;
37485;SDS011;23341;50.296;18.960;2023-03-23T05:37:13;15.95;;;9.73;;
37485;SDS011;23341;50.296;18.960;2023-03-23T05:42:29;18.40;;;12.20;;
37485;SDS011;23341;50.296;18.960;2023-03-23T05:47:41;17.77;;;11.77;;
37485;SDS011;23341;50.296;18.960;2023-03-23T05:52:49;17.05;;;10.13;;
37485;SDS011;23341;50.296;18.960;2023-03-23T05:57:56;13.73;;;8.60;;
37485;SDS011;23341;50.296;18.960;2023-03-23T06:03:04;19.45;;;9.90;;
37485;SDS011;23341;50.296;18.960;2023-03-23T06:08:16;16.88;;;10.35;;
37485;SDS011;23341;50.296;18.960;2023-03-23T06:13:21;26.70;;;12.43;;
37485;SDS011;23341;50.296;18.960;2023-03-23T06:18:27;26.38;;;10.82;;
37485;SDS011;23341;50.296;18.960;2023-03-23T06:23:43;19.55;;;9.55;;
37485;SDS011;23341;50.296;18.960;2023-03-23T06:28:48;17.77;;;7.93;;
37485;SDS011;23341;50.296;18.960;2023-03-23T06:33:51;25.42;;;10.80;;
37485;SDS011;23341;50.296;18.960;2023-03-23T06:39:01;19.27;;;11.07;;
37485;SDS011;23341;50.296;18.960;2023-03-23T06:44:27;16.08;;;8.45;;
37485;SDS011;23341;50.296;18.960;2023-03-23T06:49:33;14.00;;;8.38;;
37485;SDS011;23341;50.296;18.960;2023-03-23T06:54:56;15.00;;;6.82;;
37485;SDS011;23341;50.296;18.960;2023-03-23T07:00:01;11.75;;;7.05;;
37485;SDS011;23341;50.296;18.960;2023-03-23T07:05:17;11.75;;;6.80;;
37485;SDS011;23341;50.296;18.960;2023-03-23T07:10:24;8.77;;;7.00;;
37485;SDS011;23341;50.296;18.960;2023-03-23T07:15:29;13.63;;;9.40;;
37485;SDS011;23341;50.296;18.960;2023-03-23T07:20:33;18.02;;;8.88;;
37485;SDS011;23341;50.296;18.960;2023-03-23T07:25:36;19.85;;;12.02;;
37485;SDS011;23341;50.296;18.960;2023-03-23T07:30:42;20.30;;;8.75;;
37485;SDS011;23341;50.296;18.960;2023-03-23T07:35:46;13.38;;;7.68;;
37485;SDS011;23341;50.296;18.960;2023-03-23T07:40:52;21.98;;;9.82;;
37485;SDS011;23341;50.296;18.960;2023-03-23T07:45:57;17.90;;;9.07;;
37485;SDS011;23341;50.296;18.960;2023-03-23T07:51:09;17.77;;;8.30;;
37485;SDS011;23341;50.296;18.960;2023-03-23T07:56:14;18.67;;;9.48;;
37485;SDS011;23341;50.296;18.960;2023-03-23T08:01:24;19.50;;;9.97;;
37485;SDS011;23341;50.296;18.960;2023-03-23T08:06:50;19.83;;;9.38;;
37485;SDS011;23341;50.296;18.960;2023-03-23T08:12:23;15.43;;;8.90;;
37485;SDS011;23341;50.296;18.960;2023-03-23T08:17:47;14.15;;;8.07;;
37485;SDS011;23341;50.296;18.960;2023-03-23T08:23:14;12.73;;;7.63;;
37485;SDS011;23341;50.296;18.960;2023-03-23T08:28:30;12.60;;;8.05;;
37485;SDS011;23341;50.296;18.960;2023-03-23T08:33:55;10.90;;;6.95;;
37485;SDS011;23341;50.296;18.960;2023-03-23T08:39:19;11.60;;;6.47;;
37485;SDS011;23341;50.296;18.960;2023-03-23T08:44:59;12.18;;;6.25;;
37485;SDS011;23341;50.296;18.960;2023-03-23T08:50:23;6.93;;;5.97;;
37485;SDS011;23341;50.296;18.960;2023-03-23T08:55:48;6.95;;;6.00;;
37485;SDS011;23341;50.296;18.960;2023-03-23T09:01:01;11.80;;;6.93;;
37485;SDS011;23341;50.296;18.960;2023-03-23T09:06:19;10.15;;;6.38;;
37485;SDS011;23341;50.296;18.960;2023-03-23T09:11:22;11.48;;;6.47;;
37485;SDS011;23341;50.296;18.960;2023-03-23T09:16:25;7.70;;;5.05;;
37485;SDS011;23341;50.296;18.960;2023-03-23T09:21:30;13.75;;;6.07;;
37485;SDS011;23341;50.296;18.960;2023-03-23T09:26:33;11.57;;;6.40;;
37485;SDS011;23341;50.296;18.960;2023-03-23T09:31:37;10.95;;;5.50;;
37485;SDS011;23341;50.296;18.960;2023-03-23T09:36:42;17.77;;;6.97;;
37485;SDS011;23341;50.296;18.960;2023-03-23T09:41:51;10.07;;;5.80;;
37485;SDS011;23341;50.296;18.960;2023-03-23T09:47:11;8.43;;;5.80;;
37485;SDS011;23341;50.296;18.960;2023-03-23T09:52:34;17.25;;;7.88;;
37485;SDS011;23341;50.296;18.960;2023-03-23T09:57:44;13.73;;;5.95;;
37485;SDS011;23341;50.296;18.960;2023-03-23T10:03:04;15.65;;;6.05;;
37485;SDS011;23341;50.296;18.960;2023-03-23T10:08:11;11.55;;;5.72;;
37485;SDS011;23341;50.296;18.960;2023-03-23T10:13:19;12.15;;;5.65;;
37485;SDS011;23341;50.296;18.960;2023-03-23T10:18:29;9.27;;;4.90;;
37485;SDS011;23341;50.296;18.960;2023-03-23T10:28:59;9.50;;;5.80;;
37485;SDS011;23341;50.296;18.960;2023-03-23T10:34:12;7.53;;;4.57;;
37485;SDS011;23341;50.296;18.960;2023-03-23T10:39:21;10.27;;;5.75;;
37485;SDS011;23341;50.296;18.960;2023-03-23T10:44:26;6.75;;;4.22;;
37485;SDS011;23341;50.296;18.960;2023-03-23T10:49:32;7.80;;;4.55;;
37485;SDS011;23341;50.296;18.960;2023-03-23T10:54:51;7.43;;;4.07;;
37485;SDS011;23341;50.296;18.960;2023-03-23T10:59:58;15.07;;;6.60;;
37485;SDS011;23341;50.296;18.960;2023-03-23T11:05:12;8.88;;;4.25;;
37485;SDS011;23341;50.296;18.960;2023-03-23T11:10:22;12.43;;;5.60;;
37485;SDS011;23341;50.296;18.960;2023-03-23T11:15:28;8.35;;;5.50;;
37485;SDS011;23341;50.296;18.960;2023-03-23T11:20:34;12.75;;;5.32;;
37485;SDS011;23341;50.296;18.960;2023-03-23T11:25:52;16.08;;;4.03;;
37485;SDS011;23341;50.296;18.960;2023-03-23T11:30:59;10.27;;;6.55;;
37485;SDS011;23341;50.296;18.960;2023-03-23T11:36:06;9.90;;;5.30;;
37485;SDS011;23341;50.296;18.960;2023-03-23T11:41:12;7.57;;;5.03;;
37485;SDS011;23341;50.296;18.960;2023-03-23T11:46:24;15.90;;;5.38;;
37485;SDS011;23341;50.296;18.960;2023-03-23T11:51:36;8.70;;;7.32;;
37485;SDS011;23341;50.296;18.960;2023-03-23T11:56:45;8.77;;;5.00;;
37485;SDS011;23341;50.296;18.960;2023-03-23T12:01:51;8.57;;;4.43;;
37485;SDS011;23341;50.296;18.960;2023-03-23T12:07:00;9.57;;;4.30;;
37485;SDS011;23341;50.296;18.960;2023-03-23T12:12:18;6.40;;;4.35;;
37485;SDS011;23341;50.296;18.960;2023-03-23T12:17:32;8.43;;;4.03;;
37485;SDS011;23341;50.296;18.960;2023-03-23T12:22:46;11.82;;;4.20;;
37485;SDS011;23341;50.296;18.960;2023-03-23T12:28:00;9.05;;;4.75;;
37485;SDS011;23341;50.296;18.960;2023-03-23T12:33:18;13.82;;;6.43;;
37485;SDS011;23341;50.296;18.960;2023-03-23T12:38:38;7.90;;;5.85;;
37485;SDS011;23341;50.296;18.960;2023-03-23T12:43:53;7.03;;;5.63;;
37485;SDS011;23341;50.296;18.960;2023-03-23T12:49:04;9.05;;;5.97;;
37485;SDS011;23341;50.296;18.960;2023-03-23T12:54:14;10.80;;;6.63;;
37485;SDS011;23341;50.296;18.960;2023-03-23T12:59:28;6.03;;;5.00;;
37485;SDS011;23341;50.296;18.960;2023-03-23T13:04:39;14.65;;;6.03;;
37485;SDS011;23341;50.296;18.960;2023-03-23T13:09:48;6.57;;;5.53;;
37485;SDS011;23341;50.296;18.960;2023-03-23T13:15:00;6.40;;;4.72;;
37485;SDS011;23341;50.296;18.960;2023-03-23T13:20:18;4.78;;;3.80;;
37485;SDS011;23341;50.296;18.960;2023-03-23T13:25:40;5.03;;;3.83;;
37485;SDS011;23341;50.296;18.960;2023-03-23T13:31:02;8.65;;;3.75;;
37485;SDS011;23341;50.296;18.960;2023-03-23T13:36:10;4.07;;;3.47;;
37485;SDS011;23341;50.296;18.960;2023-03-23T13:41:16;7.70;;;3.55;;
37485;SDS011;23341;50.296;18.960;2023-03-23T13:46:28;7.60;;;4.22;;
37485;SDS011;23341;50.296;18.960;2023-03-23T13:51:34;6.97;;;3.95;;
37485;SDS011;23341;50.296;18.960;2023-03-23T13:56:40;4.00;;;3.60;;
37485;SDS011;23341;50.296;18.960;2023-03-23T14:01:46;14.00;;;4.15;;
37485;SDS011;23341;50.296;18.960;2023-03-23T14:06:49;7.30;;;4.15;;
37485;SDS011;23341;50.296;18.960;2023-03-23T14:11:59;9.18;;;4.40;;
37485;SDS011;23341;50.296;18.960;2023-03-23T14:17:13;5.50;;;4.20;;
37485;SDS011;23341;50.296;18.960;2023-03-23T14:22:18;6.95;;;5.35;;
37485;SDS011;23341;50.296;18.960;2023-03-23T14:27:24;11.85;;;6.82;;
37485;SDS011;23341;50.296;18.960;2023-03-23T14:32:31;10.95;;;5.57;;
37485;SDS011;23341;50.296;18.960;2023-03-23T14:37:35;12.43;;;6.40;;
37485;SDS011;23341;50.296;18.960;2023-03-23T14:42:39;10.43;;;7.05;;
37485;SDS011;23341;50.296;18.960;2023-03-23T14:47:45;10.68;;;6.47;;
37485;SDS011;23341;50.296;18.960;2023-03-23T14:52:51;12.48;;;6.57;;
37485;SDS011;23341;50.296;18.960;2023-03-23T14:57:54;9.27;;;6.78;;
37485;SDS011;23341;50.296;18.960;2023-03-23T15:02:59;7.78;;;5.72;;
37485;SDS011;23341;50.296;18.960;2023-03-23T15:08:06;8.43;;;5.97;;
37485;SDS011;23341;50.296;18.960;2023-03-23T15:13:15;11.43;;;6.32;;
37485;SDS011;23341;50.296;18.960;2023-03-23T15:18:32;14.10;;;7.05;;
37485;SDS011;23341;50.296;18.960;2023-03-23T15:23:40;10.40;;;6.75;;
37485;SDS011;23341;50.296;18.960;2023-03-23T15:28:44;12.75;;;7.80;;
37485;SDS011;23341;50.296;18.960;2023-03-23T15:33:49;19.25;;;9.07;;
37485;SDS011;23341;50.296;18.960;2023-03-23T15:38:58;28.45;;;14.00;;
37485;SDS011;23341;50.296;18.960;2023-03-23T15:44:09;13.98;;;10.05;;
37485;SDS011;23341;50.296;18.960;2023-03-23T15:49:15;42.72;;;20.90;;
37485;SDS011;23341;50.296;18.960;2023-03-23T15:54:18;49.83;;;22.88;;
37485;SDS011;23341;50.296;18.960;2023-03-23T15:59:22;29.15;;;13.65;;
37485;SDS011;23341;50.296;18.960;2023-03-23T16:04:28;24.33;;;13.40;;
37485;SDS011;23341;50.296;18.960;2023-03-23T16:09:32;20.83;;;12.18;;
37485;SDS011;23341;50.296;18.960;2023-03-23T16:14:37;16.00;;;10.40;;
37485;SDS011;23341;50.296;18.960;2023-03-23T16:19:43;15.95;;;9.98;;
37485;SDS011;23341;50.296;18.960;2023-03-23T16:24:47;14.88;;;10.45;;
37485;SDS011;23341;50.296;18.960;2023-03-23T16:29:51;18.35;;;11.48;;
37485;SDS011;23341;50.296;18.960;2023-03-23T16:35:07;11.80;;;8.60;;
37485;SDS011;23341;50.296;18.960;2023-03-23T16:40:12;11.35;;;7.70;;
37485;SDS011;23341;50.296;18.960;2023-03-23T16:45:17;16.42;;;10.63;;
37485;SDS011;23341;50.296;18.960;2023-03-23T16:50:23;28.10;;;16.58;;
37485;SDS011;23341;50.296;18.960;2023-03-23T16:55:28;40.30;;;21.63;;
37485;SDS011;23341;50.296;18.960;2023-03-23T17:00:33;40.47;;;21.60;;
37485;SDS011;23341;50.296;18.960;2023-03-23T17:05:41;20.88;;;13.30;;
37485;SDS011;23341;50.296;18.960;2023-03-23T17:10:46;24.77;;;12.95;;
37485;SDS011;23341;50.296;18.960;2023-03-23T17:15:51;16.98;;;10.82;;
37485;SDS011;23341;50.296;18.960;2023-03-23T17:20:59;21.42;;;12.23;;
37485;SDS011;23341;50.296;18.960;2023-03-23T17:26:03;25.35;;;13.73;;
37485;SDS011;23341;50.296;18.960;2023-03-23T17:31:08;25.83;;;15.40;;
37485;SDS011;23341;50.296;18.960;2023-03-23T17:36:14;22.42;;;13.55;;
37485;SDS011;23341;50.296;18.960;2023-03-23T17:41:18;22.85;;;13.43;;
37485;SDS011;23341;50.296;18.960;2023-03-23T17:46:23;22.92;;;14.48;;
37485;SDS011;23341;50.296;18.960;2023-03-23T17:51:29;24.52;;;14.20;;
37485;SDS011;23341;50.296;18.960;2023-03-23T17:56:33;27.73;;;16.33;;
37485;SDS011;23341;50.296;18.960;2023-03-23T18:01:38;53.75;;;29.92;;
37485;SDS011;23341;50.296;18.960;2023-03-23T18:06:43;51.00;;;28.25;;
37485;SDS011;23341;50.296;18.960;2023-03-23T18:11:49;46.05;;;21.08;;
37485;SDS011;23341;50.296;18.960;2023-03-23T18:16:54;46.85;;;25.98;;
37485;SDS011;23341;50.296;18.960;2023-03-23T18:22:00;25.10;;;16.10;;
37485;SDS011;23341;50.296;18.960;2023-03-23T18:27:04;33.42;;;20.75;;
37485;SDS011;23341;50.296;18.960;2023-03-23T18:32:08;32.40;;;16.88;;
37485;SDS011;23341;50.296;18.960;2023-03-23T18:37:14;29.75;;;17.30;;
37485;SDS011;23341;50.296;18.960;2023-03-23T18:42:19;37.67;;;18.75;;
37485;SDS011;23341;50.296;18.960;2023-03-23T18:47:25;30.83;;;15.45;;
37485;SDS011;23341;50.296;18.960;2023-03-23T18:52:31;33.00;;;17.33;;
37485;SDS011;23341;50.296;18.960;2023-03-23T18:57:37;62.05;;;28.35;;
37485;SDS011;23341;50.296;18.960;2023-03-23T19:02:42;39.53;;;18.92;;
37485;SDS011;23341;50.296;18.960;2023-03-23T19:07:55;40.72;;;20.60;;
37485;SDS011;23341;50.296;18.960;2023-03-23T19:13:00;39.05;;;18.00;;
37485;SDS011;23341;50.296;18.960;2023-03-23T19:18:04;53.75;;;24.77;;
37485;SDS011;23341;50.296;18.960;2023-03-23T19:23:11;34.42;;;18.60;;
37485;SDS011;23341;50.296;18.960;2023-03-23T19:28:15;44.22;;;20.23;;
37485;SDS011;23341;50.296;18.960;2023-03-23T19:33:23;33.80;;;17.65;;
37485;SDS011;23341;50.296;18.960;2023-03-23T19:38:30;32.70;;;17.15;;
37485;SDS011;23341;50.296;18.960;2023-03-23T19:43:34;32.05;;;17.20;;
37485;SDS011;23341;50.296;18.960;2023-03-23T19:48:39;30.48;;;15.80;;
37485;SDS011;23341;50.296;18.960;2023-03-23T19:53:45;38.00;;;18.45;;
37485;SDS011;23341;50.296;18.960;2023-03-23T19:58:49;39.53;;;19.17;;
37485;SDS011;23341;50.296;18.960;2023-03-23T20:03:54;30.95;;;15.93;;
37485;SDS011;23341;50.296;18.960;2023-03-23T20:09:03;29.70;;;17.65;;
37485;SDS011;23341;50.296;18.960;2023-03-23T20:14:08;32.95;;;17.15;;
37485;SDS011;23341;50.296;18.960;2023-03-23T20:19:13;50.58;;;27.60;;
37485;SDS011;23341;50.296;18.960;2023-03-23T20:24:19;42.08;;;18.52;;
37485;SDS011;23341;50.296;18.960;2023-03-23T20:29:23;38.72;;;21.88;;
37485;SDS011;23341;50.296;18.960;2023-03-23T20:34:27;44.20;;;22.05;;
37485;SDS011;23341;50.296;18.960;2023-03-23T20:39:34;37.85;;;20.88;;
37485;SDS011;23341;50.296;18.960;2023-03-23T20:44:39;38.42;;;19.45;;
37485;SDS011;23341;50.296;18.960;2023-03-23T20:49:44;32.72;;;16.42;;
37485;SDS011;23341;50.296;18.960;2023-03-23T20:54:59;32.80;;;17.25;;
37485;SDS011;23341;50.296;18.960;2023-03-23T21:00:05;34.42;;;19.17;;
37485;SDS011;23341;50.296;18.960;2023-03-23T21:05:11;53.05;;;26.38;;
37485;SDS011;23341;50.296;18.960;2023-03-23T21:10:17;54.03;;;26.73;;
37485;SDS011;23341;50.296;18.960;2023-03-23T21:15:24;34.42;;;19.98;;
37485;SDS011;23341;50.296;18.960;2023-03-23T21:20:29;40.55;;;19.95;;
37485;SDS011;23341;50.296;18.960;2023-03-23T21:25:35;35.95;;;20.73;;
37485;SDS011;23341;50.296;18.960;2023-03-23T21:30:39;45.72;;;21.10;;
37485;SDS011;23341;50.296;18.960;2023-03-23T21:35:47;55.72;;;26.95;;
37485;SDS011;23341;50.296;18.960;2023-03-23T21:40:53;43.65;;;20.08;;
37485;SDS011;23341;50.296;18.960;2023-03-23T21:45:59;36.65;;;16.20;;
37485;SDS011;23341;50.296;18.960;2023-03-23T21:51:07;41.15;;;18.15;;
37485;SDS011;23341;50.296;18.960;2023-03-23T21:56:16;23.35;;;12.95;;
37485;SDS011;23341;50.296;18.960;2023-03-23T22:01:21;20.92;;;11.27;;
37485;SDS011;23341;50.296;18.960;2023-03-23T22:06:25;15.73;;;7.38;;
37485;SDS011;23341;50.296;18.960;2023-03-23T22:11:33;17.23;;;9.10;;
37485;SDS011;23341;50.296;18.960;2023-03-23T22:16:39;21.50;;;12.90;;
37485;SDS011;23341;50.296;18.960;2023-03-23T22:21:44;17.48;;;10.35;;
37485;SDS011;23341;50.296;18.960;2023-03-23T22:26:50;13.65;;;8.10;;
37485;SDS011;23341;50.296;18.960;2023-03-23T22:31:55;11.13;;;6.70;;
37485;SDS011;23341;50.296;18.960;2023-03-23T22:36:59;10.30;;;6.05;;
37485;SDS011;23341;50.296;18.960;2023-03-23T22:42:07;14.25;;;6.72;;
37485;SDS011;23341;50.296;18.960;2023-03-23T22:47:14;8.25;;;6.75;;
37485;SDS011;23341;50.296;18.960;2023-03-23T22:52:18;11.18;;;7.78;;
37485;SDS011;23341;50.296;18.960;2023-03-23T22:57:24;13.75;;;7.93;;
37485;SDS011;23341;50.296;18.960;2023-03-23T23:02:29;12.75;;;7.15;;
37485;SDS011;23341;50.296;18.960;2023-03-23T23:07:33;12.63;;;7.45;;
37485;SDS011;23341;50.296;18.960;2023-03-23T23:12:40;13.32;;;7.07;;
37485;SDS011;23341;50.296;18.960;2023-03-23T23:17:47;11.85;;;7.43;;
37485;SDS011;23341;50.296;18.960;2023-03-23T23:22:51;17.77;;;7.60;;
37485;SDS011;23341;50.296;18.960;2023-03-23T23:27:57;15.48;;;6.40;;
37485;SDS011;23341;50.296;18.960;2023-03-23T23:33:04;13.10;;;7.15;;
37485;SDS011;23341;50.296;18.960;2023-03-23T23:38:09;10.20;;;6.85;;
37485;SDS011;23341;50.296;18.960;2023-03-23T23:43:15;13.10;;;6.68;;
37485;SDS011;23341;50.296;18.960;2023-03-23T23:48:20;12.15;;;6.18;;
37485;SDS011;23341;50.296;18.960;2023-03-23T23:53:24;10.18;;;6.75;;
37485;SDS011;23341;50.296;18.960;2023-03-23T23:58:30;8.43;;;5.47;;
